sensor_id;sensor_type;location;lat;lon;timestamp;pressure;altitude;pressure_sealevel;temperature;humidity
47706;BME280;33471;52.104;1.318;2023-06-14T00:01:37;101308.76;;;13.43;53.27
47706;BME280;33471;52.104;1.318;2023-06-14T00:04:05;101309.00;;;13.63;53.21
47706;BME280;33471;52.104;1.318;2023-06-14T00:06:32;101313.58;;;13.98;52.26
47706;BME280;33471;52.104;1.318;2023-06-14T00:08:59;101310.30;;;13.18;54.25
47706;BME280;33471;52.104;1.318;2023-06-14T00:11:27;101306.12;;;13.74;53.38
47706;BME280;33471;52.104;1.318;2023-06-14T00:13:54;101304.83;;;12.86;54.79
47706;BME280;33471;52.104;1.318;2023-06-14T00:16:22;101307.16;;;13.31;54.20
47706;BME280;33471;52.104;1.318;2023-06-14T00:18:49;101302.84;;;13.28;54.35
47706;BME280;33471;52.104;1.318;2023-06-14T00:21:16;101300.35;;;13.54;53.60
47706;BME280;33471;52.104;1.318;2023-06-14T00:23:43;101295.84;;;13.22;54.27
47706;BME280;33471;52.104;1.318;2023-06-14T00:26:11;101298.07;;;13.18;54.69
47706;BME280;33471;52.104;1.318;2023-06-14T00:28:38;101297.48;;;13.47;54.88
47706;BME280;33471;52.104;1.318;2023-06-14T00:31:05;101302.85;;;13.16;54.57
47706;BME280;33471;52.104;1.318;2023-06-14T00:33:32;101298.87;;;13.41;55.18
47706;BME280;33471;52.104;1.318;2023-06-14T00:35:59;101300.79;;;13.83;53.71
47706;BME280;33471;52.104;1.318;2023-06-14T00:38:26;101298.78;;;13.41;54.50
47706;BME280;33471;52.104;1.318;2023-06-14T00:40:54;101297.56;;;13.64;53.69
47706;BME280;33471;52.104;1.318;2023-06-14T00:43:21;101297.74;;;13.22;54.91
47706;BME280;33471;52.104;1.318;2023-06-14T00:45:48;101294.66;;;13.84;53.33
47706;BME280;33471;52.104;1.318;2023-06-14T00:48:15;101292.75;;;13.27;54.70
47706;BME280;33471;52.104;1.318;2023-06-14T00:50:43;101291.34;;;13.33;54.58
47706;BME280;33471;52.104;1.318;2023-06-14T00:53:11;101291.42;;;14.06;53.52
47706;BME280;33471;52.104;1.318;2023-06-14T00:55:38;101293.82;;;13.61;53.52
47706;BME280;33471;52.104;1.318;2023-06-14T00:58:06;101291.01;;;13.72;53.88
47706;BME280;33471;52.104;1.318;2023-06-14T01:00:33;101287.05;;;13.22;54.47
47706;BME280;33471;52.104;1.318;2023-06-14T01:03:01;101289.39;;;13.54;53.94
47706;BME280;33471;52.104;1.318;2023-06-14T01:05:27;101287.96;;;13.69;54.00
47706;BME280;33471;52.104;1.318;2023-06-14T01:08:05;101284.46;;;13.49;54.62
47706;BME280;33471;52.104;1.318;2023-06-14T01:10:41;101283.22;;;13.55;54.32
47706;BME280;33471;52.104;1.318;2023-06-14T01:13:20;101281.95;;;13.66;54.06
47706;BME280;33471;52.104;1.318;2023-06-14T01:15:47;101285.06;;;13.39;53.91
47706;BME280;33471;52.104;1.318;2023-06-14T01:18:17;101284.55;;;13.80;53.53
47706;BME280;33471;52.104;1.318;2023-06-14T01:20:50;101290.19;;;13.69;54.29
47706;BME280;33471;52.104;1.318;2023-06-14T01:23:18;101290.03;;;13.65;53.88
47706;BME280;33471;52.104;1.318;2023-06-14T01:25:46;101292.61;;;13.95;53.63
47706;BME280;33471;52.104;1.318;2023-06-14T01:28:15;101294.27;;;14.45;53.13
47706;BME280;33471;52.104;1.318;2023-06-14T01:30:45;101297.01;;;13.93;53.47
47706;BME280;33471;52.104;1.318;2023-06-14T01:33:14;101293.91;;;13.58;54.28
47706;BME280;33471;52.104;1.318;2023-06-14T01:35:43;101300.23;;;13.74;54.13
47706;BME280;33471;52.104;1.318;2023-06-14T01:38:13;101296.94;;;13.75;53.65
47706;BME280;33471;52.104;1.318;2023-06-14T01:40:41;101295.33;;;13.29;55.64
47706;BME280;33471;52.104;1.318;2023-06-14T01:43:10;101296.00;;;13.91;54.43
47706;BME280;33471;52.104;1.318;2023-06-14T01:45:40;101294.48;;;13.62;54.33
47706;BME280;33471;52.104;1.318;2023-06-14T01:48:08;101293.85;;;13.89;53.05
47706;BME280;33471;52.104;1.318;2023-06-14T01:50:36;101293.21;;;13.76;53.58
47706;BME280;33471;52.104;1.318;2023-06-14T01:53:03;101294.22;;;14.23;52.68
47706;BME280;33471;52.104;1.318;2023-06-14T01:55:31;101294.70;;;14.01;53.12
47706;BME280;33471;52.104;1.318;2023-06-14T01:57:58;101295.81;;;14.12;52.23
47706;BME280;33471;52.104;1.318;2023-06-14T02:00:26;101294.29;;;13.93;53.73
47706;BME280;33471;52.104;1.318;2023-06-14T02:02:53;101294.58;;;14.16;52.82
47706;BME280;33471;52.104;1.318;2023-06-14T02:05:20;101295.23;;;14.18;52.44
47706;BME280;33471;52.104;1.318;2023-06-14T02:07:47;101294.29;;;13.91;53.59
47706;BME280;33471;52.104;1.318;2023-06-14T02:10:15;101295.91;;;13.93;53.25
47706;BME280;33471;52.104;1.318;2023-06-14T02:12:44;101293.86;;;14.16;53.18
47706;BME280;33471;52.104;1.318;2023-06-14T02:15:12;101292.74;;;14.12;53.21
47706;BME280;33471;52.104;1.318;2023-06-14T02:17:40;101290.93;;;13.94;53.85
47706;BME280;33471;52.104;1.318;2023-06-14T02:20:08;101290.22;;;14.08;53.93
47706;BME280;33471;52.104;1.318;2023-06-14T02:22:35;101290.23;;;13.69;54.72
47706;BME280;33471;52.104;1.318;2023-06-14T02:25:03;101286.67;;;13.36;54.79
47706;BME280;33471;52.104;1.318;2023-06-14T02:27:30;101284.93;;;13.56;54.72
47706;BME280;33471;52.104;1.318;2023-06-14T02:29:58;101286.06;;;13.83;54.98
47706;BME280;33471;52.104;1.318;2023-06-14T02:32:25;101285.48;;;13.90;54.11
47706;BME280;33471;52.104;1.318;2023-06-14T02:34:53;101285.04;;;13.40;55.77
47706;BME280;33471;52.104;1.318;2023-06-14T02:37:21;101288.80;;;14.20;53.43
47706;BME280;33471;52.104;1.318;2023-06-14T02:39:48;101285.71;;;14.30;53.28
47706;BME280;33471;52.104;1.318;2023-06-14T02:42:15;101286.85;;;14.09;53.54
47706;BME280;33471;52.104;1.318;2023-06-14T02:44:42;101283.46;;;13.83;54.09
47706;BME280;33471;52.104;1.318;2023-06-14T02:47:09;101283.31;;;13.79;53.95
47706;BME280;33471;52.104;1.318;2023-06-14T02:49:36;101284.05;;;13.67;54.79
47706;BME280;33471;52.104;1.318;2023-06-14T02:52:04;101284.24;;;13.57;55.03
47706;BME280;33471;52.104;1.318;2023-06-14T02:54:32;101283.34;;;13.72;55.29
47706;BME280;33471;52.104;1.318;2023-06-14T02:56:59;101283.88;;;13.77;56.00
47706;BME280;33471;52.104;1.318;2023-06-14T02:59:26;101285.10;;;14.18;54.86
47706;BME280;33471;52.104;1.318;2023-06-14T03:01:53;101283.71;;;13.81;54.95
47706;BME280;33471;52.104;1.318;2023-06-14T03:04:20;101281.65;;;14.16;53.61
47706;BME280;33471;52.104;1.318;2023-06-14T03:06:47;101280.29;;;14.18;53.61
47706;BME280;33471;52.104;1.318;2023-06-14T03:09:14;101281.99;;;13.98;53.70
47706;BME280;33471;52.104;1.318;2023-06-14T03:11:41;101282.98;;;14.41;52.96
47706;BME280;33471;52.104;1.318;2023-06-14T03:14:08;101280.95;;;13.62;56.33
47706;BME280;33471;52.104;1.318;2023-06-14T03:16:35;101284.08;;;13.95;55.44
47706;BME280;33471;52.104;1.318;2023-06-14T03:19:02;101287.16;;;13.89;54.87
47706;BME280;33471;52.104;1.318;2023-06-14T03:21:30;101289.58;;;14.08;53.69
47706;BME280;33471;52.104;1.318;2023-06-14T03:23:57;101291.43;;;14.06;55.57
47706;BME280;33471;52.104;1.318;2023-06-14T03:26:25;101288.58;;;13.03;56.70
47706;BME280;33471;52.104;1.318;2023-06-14T03:28:52;101291.64;;;14.16;55.61
47706;BME280;33471;52.104;1.318;2023-06-14T03:31:20;101291.42;;;13.56;55.83
47706;BME280;33471;52.104;1.318;2023-06-14T03:33:47;101295.59;;;13.66;55.69
47706;BME280;33471;52.104;1.318;2023-06-14T03:36:14;101293.33;;;13.26;57.70
47706;BME280;33471;52.104;1.318;2023-06-14T03:38:41;101296.21;;;13.52;57.19
47706;BME280;33471;52.104;1.318;2023-06-14T03:41:09;101295.51;;;13.75;56.34
47706;BME280;33471;52.104;1.318;2023-06-14T03:43:36;101301.62;;;13.71;55.34
47706;BME280;33471;52.104;1.318;2023-06-14T03:46:03;101302.90;;;13.90;54.82
47706;BME280;33471;52.104;1.318;2023-06-14T03:48:30;101301.99;;;13.30;56.59
47706;BME280;33471;52.104;1.318;2023-06-14T03:50:58;101299.95;;;13.54;56.58
47706;BME280;33471;52.104;1.318;2023-06-14T03:53:25;101302.25;;;14.83;54.53
47706;BME280;33471;52.104;1.318;2023-06-14T03:55:52;101303.28;;;14.51;54.47
47706;BME280;33471;52.104;1.318;2023-06-14T03:58:20;101304.18;;;14.19;54.06
47706;BME280;33471;52.104;1.318;2023-06-14T04:00:47;101303.49;;;13.66;56.20
47706;BME280;33471;52.104;1.318;2023-06-14T04:03:14;101306.75;;;14.07;55.62
47706;BME280;33471;52.104;1.318;2023-06-14T04:05:42;101307.46;;;14.43;54.43
47706;BME280;33471;52.104;1.318;2023-06-14T04:08:09;101304.22;;;14.26;54.15
47706;BME280;33471;52.104;1.318;2023-06-14T04:10:36;101304.80;;;14.58;54.04
47706;BME280;33471;52.104;1.318;2023-06-14T04:13:03;101304.45;;;14.50;54.20
47706;BME280;33471;52.104;1.318;2023-06-14T04:15:31;101301.28;;;14.62;53.70
47706;BME280;33471;52.104;1.318;2023-06-14T04:17:59;101302.87;;;14.79;53.55
47706;BME280;33471;52.104;1.318;2023-06-14T04:20:26;101300.23;;;15.59;52.81
47706;BME280;33471;52.104;1.318;2023-06-14T04:22:53;101303.21;;;14.81;54.54
47706;BME280;33471;52.104;1.318;2023-06-14T04:25:20;101302.01;;;14.20;54.87
47706;BME280;33471;52.104;1.318;2023-06-14T04:27:48;101300.84;;;15.40;53.72
47706;BME280;33471;52.104;1.318;2023-06-14T04:30:15;101302.99;;;14.73;54.18
47706;BME280;33471;52.104;1.318;2023-06-14T04:32:43;101305.19;;;14.68;54.46
47706;BME280;33471;52.104;1.318;2023-06-14T04:35:10;101298.76;;;15.45;53.56
47706;BME280;33471;52.104;1.318;2023-06-14T04:37:37;101298.52;;;15.54;53.62
47706;BME280;33471;52.104;1.318;2023-06-14T04:40:05;101296.83;;;15.53;53.82
47706;BME280;33471;52.104;1.318;2023-06-14T04:42:33;101295.33;;;15.82;53.24
47706;BME280;33471;52.104;1.318;2023-06-14T04:45:00;101295.35;;;15.26;54.59
47706;BME280;33471;52.104;1.318;2023-06-14T04:47:28;101298.77;;;15.30;54.26
47706;BME280;33471;52.104;1.318;2023-06-14T04:49:56;101301.25;;;16.03;53.67
47706;BME280;33471;52.104;1.318;2023-06-14T04:52:24;101302.69;;;16.52;52.72
47706;BME280;33471;52.104;1.318;2023-06-14T04:54:51;101303.65;;;17.31;50.14
47706;BME280;33471;52.104;1.318;2023-06-14T04:57:19;101303.40;;;17.55;48.56
47706;BME280;33471;52.104;1.318;2023-06-14T04:59:46;101307.14;;;18.01;46.70
47706;BME280;33471;52.104;1.318;2023-06-14T05:02:13;101309.73;;;18.50;46.44
47706;BME280;33471;52.104;1.318;2023-06-14T05:04:41;101308.05;;;18.57;46.29
47706;BME280;33471;52.104;1.318;2023-06-14T05:07:08;101307.26;;;18.31;47.14
47706;BME280;33471;52.104;1.318;2023-06-14T05:09:36;101308.59;;;18.32;46.27
47706;BME280;33471;52.104;1.318;2023-06-14T05:12:04;101312.95;;;18.31;46.30
47706;BME280;33471;52.104;1.318;2023-06-14T05:14:32;101317.40;;;18.64;46.14
47706;BME280;33471;52.104;1.318;2023-06-14T05:16:59;101317.15;;;19.03;45.21
47706;BME280;33471;52.104;1.318;2023-06-14T05:19:26;101319.36;;;19.66;43.87
47706;BME280;33471;52.104;1.318;2023-06-14T05:21:54;101322.78;;;19.06;45.28
47706;BME280;33471;52.104;1.318;2023-06-14T05:24:21;101322.70;;;18.99;45.14
47706;BME280;33471;52.104;1.318;2023-06-14T05:26:48;101327.42;;;19.25;45.15
47706;BME280;33471;52.104;1.318;2023-06-14T05:29:15;101327.51;;;18.60;45.90
47706;BME280;33471;52.104;1.318;2023-06-14T05:31:42;101327.45;;;18.74;46.77
47706;BME280;33471;52.104;1.318;2023-06-14T05:34:10;101323.75;;;18.33;47.50
47706;BME280;33471;52.104;1.318;2023-06-14T05:36:37;101322.14;;;18.33;47.73
47706;BME280;33471;52.104;1.318;2023-06-14T05:39:04;101321.11;;;18.47;47.95
47706;BME280;33471;52.104;1.318;2023-06-14T05:41:31;101323.33;;;18.23;48.43
47706;BME280;33471;52.104;1.318;2023-06-14T05:43:59;101324.74;;;19.24;47.17
47706;BME280;33471;52.104;1.318;2023-06-14T05:46:26;101326.91;;;19.16;45.76
47706;BME280;33471;52.104;1.318;2023-06-14T05:48:54;101331.77;;;18.97;46.44
47706;BME280;33471;52.104;1.318;2023-06-14T05:51:23;101334.93;;;19.63;45.37
47706;BME280;33471;52.104;1.318;2023-06-14T05:53:50;101337.24;;;18.64;46.56
47706;BME280;33471;52.104;1.318;2023-06-14T05:56:18;101335.86;;;19.36;45.80
47706;BME280;33471;52.104;1.318;2023-06-14T05:58:46;101338.65;;;18.82;46.95
47706;BME280;33471;52.104;1.318;2023-06-14T06:01:14;101341.88;;;18.97;46.67
47706;BME280;33471;52.104;1.318;2023-06-14T06:03:42;101342.56;;;19.22;46.37
47706;BME280;33471;52.104;1.318;2023-06-14T06:06:09;101342.80;;;19.66;46.46
47706;BME280;33471;52.104;1.318;2023-06-14T06:08:37;101347.10;;;19.04;46.95
47706;BME280;33471;52.104;1.318;2023-06-14T06:11:03;101343.41;;;19.12;46.82
47706;BME280;33471;52.104;1.318;2023-06-14T06:13:31;101345.92;;;19.48;46.59
47706;BME280;33471;52.104;1.318;2023-06-14T06:15:58;101351.79;;;19.17;46.52
47706;BME280;33471;52.104;1.318;2023-06-14T06:18:26;101353.01;;;19.29;46.43
47706;BME280;33471;52.104;1.318;2023-06-14T06:20:53;101357.05;;;19.34;46.55
47706;BME280;33471;52.104;1.318;2023-06-14T06:23:20;101358.89;;;20.15;45.42
47706;BME280;33471;52.104;1.318;2023-06-14T06:25:47;101358.17;;;19.47;46.10
47706;BME280;33471;52.104;1.318;2023-06-14T06:28:15;101357.86;;;19.15;47.22
47706;BME280;33471;52.104;1.318;2023-06-14T06:30:42;101362.74;;;19.50;45.80
47706;BME280;33471;52.104;1.318;2023-06-14T06:33:09;101365.88;;;19.59;45.63
47706;BME280;33471;52.104;1.318;2023-06-14T06:35:36;101367.30;;;19.21;46.49
47706;BME280;33471;52.104;1.318;2023-06-14T06:38:03;101370.18;;;19.53;45.83
47706;BME280;33471;52.104;1.318;2023-06-14T06:40:30;101374.29;;;19.43;45.59
47706;BME280;33471;52.104;1.318;2023-06-14T06:42:58;101376.99;;;19.74;45.08
47706;BME280;33471;52.104;1.318;2023-06-14T06:45:25;101372.04;;;20.29;44.90
47706;BME280;33471;52.104;1.318;2023-06-14T06:47:53;101371.51;;;20.12;44.56
47706;BME280;33471;52.104;1.318;2023-06-14T06:50:21;101373.59;;;20.55;44.21
47706;BME280;33471;52.104;1.318;2023-06-14T06:52:48;101373.86;;;20.32;44.40
47706;BME280;33471;52.104;1.318;2023-06-14T06:55:15;101380.14;;;20.04;44.88
47706;BME280;33471;52.104;1.318;2023-06-14T06:57:42;101383.02;;;19.77;45.19
47706;BME280;33471;52.104;1.318;2023-06-14T07:00:10;101389.40;;;19.77;45.02
47706;BME280;33471;52.104;1.318;2023-06-14T07:02:37;101381.67;;;20.34;42.95
47706;BME280;33471;52.104;1.318;2023-06-14T07:05:05;101388.77;;;19.32;44.56
47706;BME280;33471;52.104;1.318;2023-06-14T07:07:32;101387.81;;;20.18;43.49
47706;BME280;33471;52.104;1.318;2023-06-14T07:10:00;101394.60;;;20.02;43.01
47706;BME280;33471;52.104;1.318;2023-06-14T07:12:27;101395.17;;;19.44;43.70
47706;BME280;33471;52.104;1.318;2023-06-14T07:14:54;101395.39;;;19.67;43.42
47706;BME280;33471;52.104;1.318;2023-06-14T07:17:22;101396.67;;;19.90;43.32
47706;BME280;33471;52.104;1.318;2023-06-14T07:19:49;101393.26;;;20.33;42.46
47706;BME280;33471;52.104;1.318;2023-06-14T07:22:17;101394.79;;;20.31;42.20
47706;BME280;33471;52.104;1.318;2023-06-14T07:24:44;101397.08;;;21.45;40.92
47706;BME280;33471;52.104;1.318;2023-06-14T07:27:11;101398.93;;;20.99;40.97
47706;BME280;33471;52.104;1.318;2023-06-14T07:29:39;101401.79;;;20.96;40.27
47706;BME280;33471;52.104;1.318;2023-06-14T07:32:06;101402.66;;;20.98;40.18
47706;BME280;33471;52.104;1.318;2023-06-14T07:34:34;101402.74;;;21.05;40.48
47706;BME280;33471;52.104;1.318;2023-06-14T07:37:01;101401.38;;;20.86;40.87
47706;BME280;33471;52.104;1.318;2023-06-14T07:39:28;101401.50;;;20.58;41.29
47706;BME280;33471;52.104;1.318;2023-06-14T07:41:56;101409.34;;;20.88;40.52
47706;BME280;33471;52.104;1.318;2023-06-14T07:44:23;101410.01;;;21.45;40.39
47706;BME280;33471;52.104;1.318;2023-06-14T07:46:50;101408.32;;;22.00;38.78
47706;BME280;33471;52.104;1.318;2023-06-14T07:49:17;101413.17;;;21.74;39.35
47706;BME280;33471;52.104;1.318;2023-06-14T07:51:44;101416.50;;;21.72;39.29
47706;BME280;33471;52.104;1.318;2023-06-14T07:54:11;101415.70;;;21.56;39.49
47706;BME280;33471;52.104;1.318;2023-06-14T07:56:38;101417.35;;;22.45;38.38
47706;BME280;33471;52.104;1.318;2023-06-14T07:59:05;101420.97;;;21.89;38.14
47706;BME280;33471;52.104;1.318;2023-06-14T08:01:32;101418.04;;;21.90;38.19
47706;BME280;33471;52.104;1.318;2023-06-14T08:04:00;101418.42;;;22.01;37.81
47706;BME280;33471;52.104;1.318;2023-06-14T08:06:28;101416.19;;;22.06;37.88
47706;BME280;33471;52.104;1.318;2023-06-14T08:08:55;101419.01;;;21.86;37.84
47706;BME280;33471;52.104;1.318;2023-06-14T08:11:22;101422.99;;;21.37;37.75
47706;BME280;33471;52.104;1.318;2023-06-14T08:13:49;101420.96;;;21.34;38.37
47706;BME280;33471;52.104;1.318;2023-06-14T08:16:17;101417.85;;;21.61;37.59
47706;BME280;33471;52.104;1.318;2023-06-14T08:18:43;101418.49;;;21.95;37.12
47706;BME280;33471;52.104;1.318;2023-06-14T08:21:11;101419.52;;;21.89;36.68
47706;BME280;33471;52.104;1.318;2023-06-14T08:23:39;101419.66;;;22.11;36.90
47706;BME280;33471;52.104;1.318;2023-06-14T08:26:06;101425.13;;;22.34;36.56
47706;BME280;33471;52.104;1.318;2023-06-14T08:28:33;101426.27;;;21.96;37.30
47706;BME280;33471;52.104;1.318;2023-06-14T08:31:00;101424.23;;;21.61;37.00
47706;BME280;33471;52.104;1.318;2023-06-14T08:33:27;101425.20;;;21.52;37.31
47706;BME280;33471;52.104;1.318;2023-06-14T08:35:54;101424.53;;;21.79;37.30
47706;BME280;33471;52.104;1.318;2023-06-14T08:38:21;101426.89;;;22.23;36.48
47706;BME280;33471;52.104;1.318;2023-06-14T08:40:51;101427.41;;;21.58;36.76
47706;BME280;33471;52.104;1.318;2023-06-14T08:43:19;101426.71;;;21.44;37.12
47706;BME280;33471;52.104;1.318;2023-06-14T08:45:47;101428.66;;;21.75;37.25
47706;BME280;33471;52.104;1.318;2023-06-14T08:48:15;101426.00;;;21.28;37.57
47706;BME280;33471;52.104;1.318;2023-06-14T08:50:43;101426.97;;;21.17;38.10
47706;BME280;33471;52.104;1.318;2023-06-14T08:53:13;101429.31;;;21.63;36.83
47706;BME280;33471;52.104;1.318;2023-06-14T08:55:41;101430.85;;;21.47;36.94
47706;BME280;33471;52.104;1.318;2023-06-14T08:58:08;101429.17;;;22.46;36.56
47706;BME280;33471;52.104;1.318;2023-06-14T09:00:36;101427.59;;;22.61;36.65
47706;BME280;33471;52.104;1.318;2023-06-14T09:03:03;101427.30;;;22.65;35.68
47706;BME280;33471;52.104;1.318;2023-06-14T09:05:30;101430.56;;;22.38;35.91
47706;BME280;33471;52.104;1.318;2023-06-14T09:07:58;101431.15;;;23.03;35.36
47706;BME280;33471;52.104;1.318;2023-06-14T09:10:25;101435.94;;;23.26;35.52
47706;BME280;33471;52.104;1.318;2023-06-14T09:12:52;101440.07;;;22.08;36.65
47706;BME280;33471;52.104;1.318;2023-06-14T09:15:19;101441.93;;;22.37;36.94
47706;BME280;33471;52.104;1.318;2023-06-14T09:17:47;101443.20;;;22.62;37.06
47706;BME280;33471;52.104;1.318;2023-06-14T09:20:15;101444.38;;;22.66;36.61
47706;BME280;33471;52.104;1.318;2023-06-14T09:22:43;101450.80;;;22.23;36.62
47706;BME280;33471;52.104;1.318;2023-06-14T09:25:10;101447.28;;;21.62;38.68
47706;BME280;33471;52.104;1.318;2023-06-14T09:27:38;101452.57;;;23.02;37.06
47706;BME280;33471;52.104;1.318;2023-06-14T09:30:08;101453.49;;;22.39;37.31
47706;BME280;33471;52.104;1.318;2023-06-14T09:32:37;101455.75;;;23.22;36.41
47706;BME280;33471;52.104;1.318;2023-06-14T09:35:05;101454.08;;;23.30;35.46
47706;BME280;33471;52.104;1.318;2023-06-14T09:37:32;101456.34;;;23.68;35.12
47706;BME280;33471;52.104;1.318;2023-06-14T09:40:01;101458.95;;;23.87;34.49
47706;BME280;33471;52.104;1.318;2023-06-14T09:42:28;101462.57;;;23.53;35.11
47706;BME280;33471;52.104;1.318;2023-06-14T09:44:56;101468.06;;;23.51;34.86
47706;BME280;33471;52.104;1.318;2023-06-14T09:47:24;101468.66;;;23.25;34.87
47706;BME280;33471;52.104;1.318;2023-06-14T09:49:51;101467.03;;;23.68;34.67
47706;BME280;33471;52.104;1.318;2023-06-14T09:52:20;101470.26;;;23.09;34.96
47706;BME280;33471;52.104;1.318;2023-06-14T09:54:48;101469.62;;;21.55;37.32
47706;BME280;33471;52.104;1.318;2023-06-14T09:57:20;101471.69;;;22.09;35.83
47706;BME280;33471;52.104;1.318;2023-06-14T09:59:48;101468.63;;;23.05;35.41
47706;BME280;33471;52.104;1.318;2023-06-14T10:02:25;101467.31;;;23.83;34.12
47706;BME280;33471;52.104;1.318;2023-06-14T10:04:58;101472.50;;;23.41;33.52
47706;BME280;33471;52.104;1.318;2023-06-14T10:07:33;101476.42;;;23.46;33.64
47706;BME280;33471;52.104;1.318;2023-06-14T10:10:02;101478.28;;;23.67;33.46
47706;BME280;33471;52.104;1.318;2023-06-14T10:12:30;101476.75;;;24.16;33.25
47706;BME280;33471;52.104;1.318;2023-06-14T10:14:58;101475.18;;;24.75;32.31
47706;BME280;33471;52.104;1.318;2023-06-14T10:17:32;101475.26;;;24.20;32.67
47706;BME280;33471;52.104;1.318;2023-06-14T10:20:14;101474.32;;;24.80;31.88
47706;BME280;33471;52.104;1.318;2023-06-14T10:22:49;101475.29;;;24.25;31.82
47706;BME280;33471;52.104;1.318;2023-06-14T10:25:33;101474.79;;;24.61;31.35
47706;BME280;33471;52.104;1.318;2023-06-14T10:28:05;101471.79;;;24.47;31.09
47706;BME280;33471;52.104;1.318;2023-06-14T10:31:06;101469.82;;;24.19;31.32
47706;BME280;33471;52.104;1.318;2023-06-14T10:33:34;101471.38;;;24.71;31.71
47706;BME280;33471;52.104;1.318;2023-06-14T10:36:34;101468.79;;;25.71;31.42
47706;BME280;33471;52.104;1.318;2023-06-14T10:39:05;101467.64;;;25.28;30.97
47706;BME280;33471;52.104;1.318;2023-06-14T10:41:35;101462.29;;;25.22;30.65
47706;BME280;33471;52.104;1.318;2023-06-14T10:44:39;101468.53;;;25.96;30.82
47706;BME280;33471;52.104;1.318;2023-06-14T10:47:09;101468.36;;;24.90;30.83
47706;BME280;33471;52.104;1.318;2023-06-14T10:49:39;101467.22;;;25.17;30.53
47706;BME280;33471;52.104;1.318;2023-06-14T10:52:08;101462.05;;;26.10;30.50
47706;BME280;33471;52.104;1.318;2023-06-14T10:54:35;101461.56;;;25.86;29.73
47706;BME280;33471;52.104;1.318;2023-06-14T10:57:02;101467.12;;;26.08;29.62
47706;BME280;33471;52.104;1.318;2023-06-14T10:59:33;101463.38;;;26.34;29.75
47706;BME280;33471;52.104;1.318;2023-06-14T11:02:27;101465.18;;;25.98;29.49
47706;BME280;33471;52.104;1.318;2023-06-14T11:05:04;101461.42;;;26.09;29.36
47706;BME280;33471;52.104;1.318;2023-06-14T11:07:42;101463.30;;;26.70;29.03
47706;BME280;33471;52.104;1.318;2023-06-14T11:10:25;101463.96;;;26.83;28.73
47706;BME280;33471;52.104;1.318;2023-06-14T11:12:58;101459.55;;;26.62;28.90
47706;BME280;33471;52.104;1.318;2023-06-14T11:15:28;101456.52;;;27.02;28.35
47706;BME280;33471;52.104;1.318;2023-06-14T11:17:55;101458.62;;;26.25;28.75
47706;BME280;33471;52.104;1.318;2023-06-14T11:20:25;101454.00;;;26.99;28.41
47706;BME280;33471;52.104;1.318;2023-06-14T11:22:53;101450.66;;;26.74;26.61
47706;BME280;33471;52.104;1.318;2023-06-14T11:25:21;101451.99;;;27.18;27.37
47706;BME280;33471;52.104;1.318;2023-06-14T11:27:50;101453.62;;;27.82;27.06
47706;BME280;33471;52.104;1.318;2023-06-14T11:30:18;101452.07;;;26.74;26.61
47706;BME280;33471;52.104;1.318;2023-06-14T11:32:47;101449.81;;;27.32;26.26
47706;BME280;33471;52.104;1.318;2023-06-14T11:35:15;101449.67;;;26.60;25.53
47706;BME280;33471;52.104;1.318;2023-06-14T11:37:43;101448.96;;;26.37;26.38
47706;BME280;33471;52.104;1.318;2023-06-14T11:40:12;101446.93;;;26.52;26.53
47706;BME280;33471;52.104;1.318;2023-06-14T11:42:40;101448.15;;;26.17;26.93
47706;BME280;33471;52.104;1.318;2023-06-14T11:45:08;101452.95;;;26.75;26.25
47706;BME280;33471;52.104;1.318;2023-06-14T11:47:38;101452.72;;;26.68;26.29
47706;BME280;33471;52.104;1.318;2023-06-14T11:50:09;101454.10;;;26.90;26.27
47706;BME280;33471;52.104;1.318;2023-06-14T11:52:36;101454.09;;;26.30;26.30
47706;BME280;33471;52.104;1.318;2023-06-14T11:55:05;101450.59;;;26.31;25.94
47706;BME280;33471;52.104;1.318;2023-06-14T11:57:34;101451.34;;;26.14;26.49
47706;BME280;33471;52.104;1.318;2023-06-14T12:00:04;101455.97;;;25.10;27.15
47706;BME280;33471;52.104;1.318;2023-06-14T12:02:31;101464.17;;;25.45;26.46
47706;BME280;33471;52.104;1.318;2023-06-14T12:05:04;101455.76;;;26.57;25.75
47706;BME280;33471;52.104;1.318;2023-06-14T12:07:32;101456.83;;;26.37;25.99
47706;BME280;33471;52.104;1.318;2023-06-14T12:10:08;101457.87;;;25.84;26.99
47706;BME280;33471;52.104;1.318;2023-06-14T12:12:38;101460.53;;;25.82;27.23
47706;BME280;33471;52.104;1.318;2023-06-14T12:15:07;101463.96;;;26.65;26.92
47706;BME280;33471;52.104;1.318;2023-06-14T12:17:35;101458.24;;;26.98;26.87
47706;BME280;33471;52.104;1.318;2023-06-14T12:20:06;101461.62;;;27.55;24.84
47706;BME280;33471;52.104;1.318;2023-06-14T12:22:33;101458.29;;;26.87;24.69
47706;BME280;33471;52.104;1.318;2023-06-14T12:25:00;101458.39;;;27.29;24.94
47706;BME280;33471;52.104;1.318;2023-06-14T12:27:28;101456.64;;;27.49;24.78
47706;BME280;33471;52.104;1.318;2023-06-14T12:30:03;101453.18;;;27.25;25.35
47706;BME280;33471;52.104;1.318;2023-06-14T12:32:31;101456.16;;;26.70;24.87
47706;BME280;33471;52.104;1.318;2023-06-14T12:34:59;101461.13;;;26.46;25.82
47706;BME280;33471;52.104;1.318;2023-06-14T12:37:26;101456.13;;;26.94;24.98
47706;BME280;33471;52.104;1.318;2023-06-14T12:39:53;101460.28;;;26.27;25.21
47706;BME280;33471;52.104;1.318;2023-06-14T12:42:21;101460.52;;;26.13;26.00
47706;BME280;33471;52.104;1.318;2023-06-14T12:44:48;101460.99;;;26.34;25.47
47706;BME280;33471;52.104;1.318;2023-06-14T12:47:15;101460.45;;;26.31;26.14
47706;BME280;33471;52.104;1.318;2023-06-14T12:49:43;101464.10;;;26.02;26.26
47706;BME280;33471;52.104;1.318;2023-06-14T12:52:10;101468.57;;;26.50;25.43
47706;BME280;33471;52.104;1.318;2023-06-14T12:54:37;101468.22;;;26.33;24.86
47706;BME280;33471;52.104;1.318;2023-06-14T12:57:05;101464.88;;;26.90;24.87